Impacts TAF Board INFO
FOR SITUATIONAL AWARENESS. NOT TO BE USED FOR FLIGHT PLANNING PURPOSES.
IDs:

KBWI - Baltimore-Washington, MD, US

Issued at 2320 UTC 16 Oct 2017
Updated at 0349 UTC 17 Oct 2017
Potential Impact None Slight Moderate High
Time0254Z 17/04Z 17/05Z 17/06Z 17/07Z 17/08Z 17/09Z 17/10Z 17/11Z 17/12Z 17/13Z 17/14Z 17/15Z 17/16Z>>
Type OBS PRVL PRVL PRVL PRVL PRVL PRVL PRVL PRVL PRVL PRVL PRVL PRVL PRVL
VIS 10 >6 >6 >6 >6 >6 >6 >6 >6 >6 >6 >6 >6 >6
CIG -- -- -- -- -- -- -- -- -- -- -- -- -- --
Cover CLR SKC SKC SKC SKC SKC SKC SKC SKC SKC SKC SKC SKC SKC
FltCat VFR VFR VFR VFR VFR VFR VFR VFR VFR VFR VFR VFR VFR VFR
WX -- -- -- -- -- -- -- -- -- -- -- -- -- --
WDir 320 300 300 350 350 350 350 350 350 350 350 350 350 350
WSpd 3 5 5 4 4 4 4 4 4 4 4 4 4 4
WGst -- -- -- -- -- -- -- -- -- -- -- -- -- --

Raw TAF
KBWI 162320Z 1700/1806 30005KT P6SM SKC
  FM170600 35004KT P6SM SKC


Raw METAR
KBWI 170254Z 32003KT 10SM CLR 10/03 A3023 RMK AO2 SLP237 T01000033 51023
KBWI 170154Z 31004KT 10SM CLR 11/03 A3021 RMK AO2 SLP230 T01060033
KBWI 170054Z 30003KT 10SM FEW250 11/04 A3019 RMK AO2 SLP223 T01060039

METAR Board
Radar Display
Forecast Discussion

FOR SITUATIONAL AWARENESS. NOT TO BE USED FOR FLIGHT PLANNING PURPOSES.